sensor_id;sensor_type;location;lat;lon;timestamp;temperature;humidity
38414;DHT22;24195;48.654;9.294;2022-09-01T00:02:25;14.50;99.90
38414;DHT22;24195;48.654;9.294;2022-09-01T00:04:54;14.60;99.90
38414;DHT22;24195;48.654;9.294;2022-09-01T00:07:27;14.70;99.90
38414;DHT22;24195;48.654;9.294;2022-09-01T00:09:58;14.70;99.90
38414;DHT22;24195;48.654;9.294;2022-09-01T00:12:25;14.70;99.90
38414;DHT22;24195;48.654;9.294;2022-09-01T00:14:51;14.60;99.90
38414;DHT22;24195;48.654;9.294;2022-09-01T00:17:16;14.70;99.90
38414;DHT22;24195;48.654;9.294;2022-09-01T00:19:42;14.70;99.90
38414;DHT22;24195;48.654;9.294;2022-09-01T00:22:08;14.70;99.90
38414;DHT22;24195;48.654;9.294;2022-09-01T00:24:35;14.70;99.90
38414;DHT22;24195;48.654;9.294;2022-09-01T00:27:00;14.60;99.90
38414;DHT22;24195;48.654;9.294;2022-09-01T00:29:26;14.60;99.90
38414;DHT22;24195;48.654;9.294;2022-09-01T00:31:52;14.60;99.90
38414;DHT22;24195;48.654;9.294;2022-09-01T00:34:19;14.50;99.90
38414;DHT22;24195;48.654;9.294;2022-09-01T00:36:44;14.50;99.90
38414;DHT22;24195;48.654;9.294;2022-09-01T00:39:10;14.40;99.90
38414;DHT22;24195;48.654;9.294;2022-09-01T00:41:38;14.40;99.90
38414;DHT22;24195;48.654;9.294;2022-09-01T00:44:09;14.30;99.90
38414;DHT22;24195;48.654;9.294;2022-09-01T00:46:43;14.20;99.90
38414;DHT22;24195;48.654;9.294;2022-09-01T00:49:18;14.30;99.90
38414;DHT22;24195;48.654;9.294;2022-09-01T00:51:51;14.30;99.90
38414;DHT22;24195;48.654;9.294;2022-09-01T00:54:21;14.20;99.90
38414;DHT22;24195;48.654;9.294;2022-09-01T00:56:48;14.20;99.90
38414;DHT22;24195;48.654;9.294;2022-09-01T00:59:16;14.20;99.90
38414;DHT22;24195;48.654;9.294;2022-09-01T01:01:43;14.20;99.90
38414;DHT22;24195;48.654;9.294;2022-09-01T01:04:08;14.20;99.90
38414;DHT22;24195;48.654;9.294;2022-09-01T01:06:59;14.30;99.90
38414;DHT22;24195;48.654;9.294;2022-09-01T01:09:32;14.30;99.90
38414;DHT22;24195;48.654;9.294;2022-09-01T01:11:59;14.20;99.90
38414;DHT22;24195;48.654;9.294;2022-09-01T01:14:27;14.10;99.90
38414;DHT22;24195;48.654;9.294;2022-09-01T01:16:57;14.10;99.90
38414;DHT22;24195;48.654;9.294;2022-09-01T01:19:43;14.10;99.90
38414;DHT22;24195;48.654;9.294;2022-09-01T01:23:05;14.10;99.90
38414;DHT22;24195;48.654;9.294;2022-09-01T01:28:22;14.10;99.90
38414;DHT22;24195;48.654;9.294;2022-09-01T01:30:57;14.10;99.90
38414;DHT22;24195;48.654;9.294;2022-09-01T01:33:29;14.20;99.90
38414;DHT22;24195;48.654;9.294;2022-09-01T01:35:56;14.20;99.90
38414;DHT22;24195;48.654;9.294;2022-09-01T01:38:23;14.20;99.90
38414;DHT22;24195;48.654;9.294;2022-09-01T01:40:50;14.10;99.90
38414;DHT22;24195;48.654;9.294;2022-09-01T01:43:18;14.20;99.90
38414;DHT22;24195;48.654;9.294;2022-09-01T01:45:49;14.20;99.90
38414;DHT22;24195;48.654;9.294;2022-09-01T01:48:17;14.10;99.90
38414;DHT22;24195;48.654;9.294;2022-09-01T01:50:47;14.20;99.90
38414;DHT22;24195;48.654;9.294;2022-09-01T01:53:14;14.20;99.90
38414;DHT22;24195;48.654;9.294;2022-09-01T01:55:44;14.20;99.90
38414;DHT22;24195;48.654;9.294;2022-09-01T01:58:10;14.20;99.90
38414;DHT22;24195;48.654;9.294;2022-09-01T02:00:37;14.30;99.90
38414;DHT22;24195;48.654;9.294;2022-09-01T02:03:03;14.30;99.90
38414;DHT22;24195;48.654;9.294;2022-09-01T02:05:31;14.20;99.90
38414;DHT22;24195;48.654;9.294;2022-09-01T02:08:03;14.20;99.90
38414;DHT22;24195;48.654;9.294;2022-09-01T02:10:33;14.20;99.90
38414;DHT22;24195;48.654;9.294;2022-09-01T02:13:00;14.20;99.90
38414;DHT22;24195;48.654;9.294;2022-09-01T02:15:31;14.30;99.90
38414;DHT22;24195;48.654;9.294;2022-09-01T02:18:10;14.30;99.90
38414;DHT22;24195;48.654;9.294;2022-09-01T02:20:36;14.30;99.90
38414;DHT22;24195;48.654;9.294;2022-09-01T02:23:01;14.30;99.90
38414;DHT22;24195;48.654;9.294;2022-09-01T02:25:34;14.30;99.90
38414;DHT22;24195;48.654;9.294;2022-09-01T02:28:01;14.20;99.90
38414;DHT22;24195;48.654;9.294;2022-09-01T02:30:29;14.20;99.90
38414;DHT22;24195;48.654;9.294;2022-09-01T02:32:57;14.20;99.90
38414;DHT22;24195;48.654;9.294;2022-09-01T02:35:24;14.10;99.90
38414;DHT22;24195;48.654;9.294;2022-09-01T02:37:59;14.10;99.90
38414;DHT22;24195;48.654;9.294;2022-09-01T02:40:25;14.00;99.90
38414;DHT22;24195;48.654;9.294;2022-09-01T02:42:55;14.00;99.90
38414;DHT22;24195;48.654;9.294;2022-09-01T02:45:21;14.00;99.90
38414;DHT22;24195;48.654;9.294;2022-09-01T02:47:49;14.00;99.90
38414;DHT22;24195;48.654;9.294;2022-09-01T02:50:16;13.90;99.90
38414;DHT22;24195;48.654;9.294;2022-09-01T02:52:44;13.80;99.90
38414;DHT22;24195;48.654;9.294;2022-09-01T02:55:10;13.80;99.90
38414;DHT22;24195;48.654;9.294;2022-09-01T02:57:36;13.70;99.90
38414;DHT22;24195;48.654;9.294;2022-09-01T03:00:06;13.70;99.90
38414;DHT22;24195;48.654;9.294;2022-09-01T03:02:46;13.80;99.90
38414;DHT22;24195;48.654;9.294;2022-09-01T03:05:12;13.80;99.90
38414;DHT22;24195;48.654;9.294;2022-09-01T03:07:40;13.70;99.90
38414;DHT22;24195;48.654;9.294;2022-09-01T03:10:07;13.80;99.90
38414;DHT22;24195;48.654;9.294;2022-09-01T03:12:34;13.70;99.90
38414;DHT22;24195;48.654;9.294;2022-09-01T03:15:00;13.70;99.90
38414;DHT22;24195;48.654;9.294;2022-09-01T03:17:25;13.60;99.90
38414;DHT22;24195;48.654;9.294;2022-09-01T03:19:51;13.50;99.90
38414;DHT22;24195;48.654;9.294;2022-09-01T03:22:17;13.50;99.90
38414;DHT22;24195;48.654;9.294;2022-09-01T03:24:42;13.50;99.90
38414;DHT22;24195;48.654;9.294;2022-09-01T03:27:08;13.50;99.90
38414;DHT22;24195;48.654;9.294;2022-09-01T03:29:36;13.50;99.90
38414;DHT22;24195;48.654;9.294;2022-09-01T03:32:03;13.50;99.90
38414;DHT22;24195;48.654;9.294;2022-09-01T03:34:28;13.60;99.90
38414;DHT22;24195;48.654;9.294;2022-09-01T03:36:57;13.70;99.90
38414;DHT22;24195;48.654;9.294;2022-09-01T03:39:22;13.70;99.90
38414;DHT22;24195;48.654;9.294;2022-09-01T03:41:48;13.70;99.90
38414;DHT22;24195;48.654;9.294;2022-09-01T03:44:14;13.70;99.90
38414;DHT22;24195;48.654;9.294;2022-09-01T03:46:53;13.70;99.90
38414;DHT22;24195;48.654;9.294;2022-09-01T03:49:19;13.60;99.90
38414;DHT22;24195;48.654;9.294;2022-09-01T03:51:49;13.70;99.90
38414;DHT22;24195;48.654;9.294;2022-09-01T03:54:17;13.80;99.90
38414;DHT22;24195;48.654;9.294;2022-09-01T03:56:48;13.80;99.90
38414;DHT22;24195;48.654;9.294;2022-09-01T03:59:15;13.80;99.90
38414;DHT22;24195;48.654;9.294;2022-09-01T04:01:44;13.80;99.90
38414;DHT22;24195;48.654;9.294;2022-09-01T04:04:10;13.70;99.90
38414;DHT22;24195;48.654;9.294;2022-09-01T04:06:40;13.70;99.90
38414;DHT22;24195;48.654;9.294;2022-09-01T04:09:06;13.80;99.90
38414;DHT22;24195;48.654;9.294;2022-09-01T04:11:32;13.70;99.90
38414;DHT22;24195;48.654;9.294;2022-09-01T04:13:59;13.60;99.90
38414;DHT22;24195;48.654;9.294;2022-09-01T04:16:29;13.60;99.90
38414;DHT22;24195;48.654;9.294;2022-09-01T04:19:17;13.50;99.90
38414;DHT22;24195;48.654;9.294;2022-09-01T04:21:53;13.50;99.90
38414;DHT22;24195;48.654;9.294;2022-09-01T04:24:19;13.40;99.90
38414;DHT22;24195;48.654;9.294;2022-09-01T04:26:48;13.30;99.90
38414;DHT22;24195;48.654;9.294;2022-09-01T04:29:16;13.40;99.90
38414;DHT22;24195;48.654;9.294;2022-09-01T04:31:55;13.50;99.90
38414;DHT22;24195;48.654;9.294;2022-09-01T04:34:22;13.50;99.90
38414;DHT22;24195;48.654;9.294;2022-09-01T04:36:49;13.60;99.90
38414;DHT22;24195;48.654;9.294;2022-09-01T04:39:19;13.60;99.90
38414;DHT22;24195;48.654;9.294;2022-09-01T04:41:44;13.70;99.90
38414;DHT22;24195;48.654;9.294;2022-09-01T04:44:12;13.70;99.90
38414;DHT22;24195;48.654;9.294;2022-09-01T04:46:39;13.80;99.90
38414;DHT22;24195;48.654;9.294;2022-09-01T04:49:11;13.90;99.90
38414;DHT22;24195;48.654;9.294;2022-09-01T04:51:42;14.00;99.90
38414;DHT22;24195;48.654;9.294;2022-09-01T04:54:09;14.00;99.90
38414;DHT22;24195;48.654;9.294;2022-09-01T04:56:37;14.00;99.90
38414;DHT22;24195;48.654;9.294;2022-09-01T04:59:03;14.00;99.90
38414;DHT22;24195;48.654;9.294;2022-09-01T05:01:32;13.80;99.90
38414;DHT22;24195;48.654;9.294;2022-09-01T05:04:11;13.80;99.90
38414;DHT22;24195;48.654;9.294;2022-09-01T05:06:40;13.80;99.90
38414;DHT22;24195;48.654;9.294;2022-09-01T05:09:08;13.90;99.90
38414;DHT22;24195;48.654;9.294;2022-09-01T05:11:34;13.90;99.90
38414;DHT22;24195;48.654;9.294;2022-09-01T05:14:02;13.80;99.90
38414;DHT22;24195;48.654;9.294;2022-09-01T05:16:31;13.80;99.90
38414;DHT22;24195;48.654;9.294;2022-09-01T05:18:57;13.70;99.90
38414;DHT22;24195;48.654;9.294;2022-09-01T05:21:27;13.70;99.90
38414;DHT22;24195;48.654;9.294;2022-09-01T05:23:57;13.70;99.90
38414;DHT22;24195;48.654;9.294;2022-09-01T05:26:28;13.70;99.90
38414;DHT22;24195;48.654;9.294;2022-09-01T05:29:09;13.70;99.90
38414;DHT22;24195;48.654;9.294;2022-09-01T05:31:38;13.80;99.90
38414;DHT22;24195;48.654;9.294;2022-09-01T05:34:05;13.80;99.90
38414;DHT22;24195;48.654;9.294;2022-09-01T05:36:40;13.80;99.90
38414;DHT22;24195;48.654;9.294;2022-09-01T05:39:06;14.00;99.90
38414;DHT22;24195;48.654;9.294;2022-09-01T05:41:34;14.00;99.90
38414;DHT22;24195;48.654;9.294;2022-09-01T05:44:03;14.10;99.90
38414;DHT22;24195;48.654;9.294;2022-09-01T05:46:33;14.30;99.90
38414;DHT22;24195;48.654;9.294;2022-09-01T05:48:59;14.40;99.90
38414;DHT22;24195;48.654;9.294;2022-09-01T05:51:27;14.50;99.90
38414;DHT22;24195;48.654;9.294;2022-09-01T05:53:54;14.60;99.90
38414;DHT22;24195;48.654;9.294;2022-09-01T05:56:25;14.80;99.90
38414;DHT22;24195;48.654;9.294;2022-09-01T05:58:51;14.90;99.90
38414;DHT22;24195;48.654;9.294;2022-09-01T06:01:23;15.10;99.90
38414;DHT22;24195;48.654;9.294;2022-09-01T06:03:51;15.20;99.90
38414;DHT22;24195;48.654;9.294;2022-09-01T06:06:23;15.30;99.90
38414;DHT22;24195;48.654;9.294;2022-09-01T06:09:02;15.30;99.90
38414;DHT22;24195;48.654;9.294;2022-09-01T06:11:28;15.40;99.90
38414;DHT22;24195;48.654;9.294;2022-09-01T06:13:58;15.40;99.90
38414;DHT22;24195;48.654;9.294;2022-09-01T06:16:23;15.50;99.90
38414;DHT22;24195;48.654;9.294;2022-09-01T06:18:50;15.50;99.90
38414;DHT22;24195;48.654;9.294;2022-09-01T06:21:18;15.50;99.90
38414;DHT22;24195;48.654;9.294;2022-09-01T06:23:44;15.60;99.90
38414;DHT22;24195;48.654;9.294;2022-09-01T06:26:36;15.80;99.90
38414;DHT22;24195;48.654;9.294;2022-09-01T06:29:07;15.80;99.90
38414;DHT22;24195;48.654;9.294;2022-09-01T06:31:35;16.00;99.90
38414;DHT22;24195;48.654;9.294;2022-09-01T06:34:05;16.10;99.90
38414;DHT22;24195;48.654;9.294;2022-09-01T06:36:31;16.20;99.90
38414;DHT22;24195;48.654;9.294;2022-09-01T06:39:01;16.20;99.90
38414;DHT22;24195;48.654;9.294;2022-09-01T06:41:27;16.30;99.90
38414;DHT22;24195;48.654;9.294;2022-09-01T06:43:53;16.40;99.90
38414;DHT22;24195;48.654;9.294;2022-09-01T06:46:21;16.50;99.90
38414;DHT22;24195;48.654;9.294;2022-09-01T06:48:48;16.60;99.90
38414;DHT22;24195;48.654;9.294;2022-09-01T06:51:19;16.70;99.90
38414;DHT22;24195;48.654;9.294;2022-09-01T06:53:47;16.90;99.90
38414;DHT22;24195;48.654;9.294;2022-09-01T06:56:30;17.10;99.90
38414;DHT22;24195;48.654;9.294;2022-09-01T06:58:59;17.30;99.90
38414;DHT22;24195;48.654;9.294;2022-09-01T07:01:35;17.30;99.90
38414;DHT22;24195;48.654;9.294;2022-09-01T07:04:02;17.30;99.90
38414;DHT22;24195;48.654;9.294;2022-09-01T07:06:30;17.10;99.90
38414;DHT22;24195;48.654;9.294;2022-09-01T07:08:59;17.10;99.90
38414;DHT22;24195;48.654;9.294;2022-09-01T07:11:46;17.10;99.90
38414;DHT22;24195;48.654;9.294;2022-09-01T07:14:31;17.10;99.90
38414;DHT22;24195;48.654;9.294;2022-09-01T07:17:08;17.20;99.90
38414;DHT22;24195;48.654;9.294;2022-09-01T07:19:42;17.20;99.90
38414;DHT22;24195;48.654;9.294;2022-09-01T07:22:11;17.10;99.90
38414;DHT22;24195;48.654;9.294;2022-09-01T07:24:36;17.30;99.90
38414;DHT22;24195;48.654;9.294;2022-09-01T07:27:04;17.30;99.90
38414;DHT22;24195;48.654;9.294;2022-09-01T07:29:39;17.40;99.90
38414;DHT22;24195;48.654;9.294;2022-09-01T07:32:04;17.60;99.90
38414;DHT22;24195;48.654;9.294;2022-09-01T07:34:31;17.70;99.90
38414;DHT22;24195;48.654;9.294;2022-09-01T07:37:00;17.80;99.90
38414;DHT22;24195;48.654;9.294;2022-09-01T07:39:27;17.90;99.90
38414;DHT22;24195;48.654;9.294;2022-09-01T07:41:54;18.30;99.90
38414;DHT22;24195;48.654;9.294;2022-09-01T07:44:21;18.60;99.90
38414;DHT22;24195;48.654;9.294;2022-09-01T07:47:16;18.50;99.90
38414;DHT22;24195;48.654;9.294;2022-09-01T07:50:04;18.40;99.90
38414;DHT22;24195;48.654;9.294;2022-09-01T07:52:42;18.70;99.90
38414;DHT22;24195;48.654;9.294;2022-09-01T07:55:33;18.70;99.90
38414;DHT22;24195;48.654;9.294;2022-09-01T07:57:59;19.00;99.90
38414;DHT22;24195;48.654;9.294;2022-09-01T08:00:27;19.20;99.90
38414;DHT22;24195;48.654;9.294;2022-09-01T08:03:11;19.10;99.90
38414;DHT22;24195;48.654;9.294;2022-09-01T08:06:03;19.10;99.90
38414;DHT22;24195;48.654;9.294;2022-09-01T08:08:33;19.00;99.90
38414;DHT22;24195;48.654;9.294;2022-09-01T08:11:02;18.80;99.90
38414;DHT22;24195;48.654;9.294;2022-09-01T08:16:45;18.80;99.90
38414;DHT22;24195;48.654;9.294;2022-09-01T08:19:16;19.00;99.90
38414;DHT22;24195;48.654;9.294;2022-09-01T08:21:43;19.10;99.90
38414;DHT22;24195;48.654;9.294;2022-09-01T08:24:11;19.00;99.90
38414;DHT22;24195;48.654;9.294;2022-09-01T08:26:37;18.90;99.90
38414;DHT22;24195;48.654;9.294;2022-09-01T08:29:02;19.00;99.90
38414;DHT22;24195;48.654;9.294;2022-09-01T08:31:28;19.00;99.90
38414;DHT22;24195;48.654;9.294;2022-09-01T08:33:54;19.20;99.90
38414;DHT22;24195;48.654;9.294;2022-09-01T08:36:20;19.10;99.90
38414;DHT22;24195;48.654;9.294;2022-09-01T08:38:46;19.10;99.90
38414;DHT22;24195;48.654;9.294;2022-09-01T08:44:18;19.70;99.90
38414;DHT22;24195;48.654;9.294;2022-09-01T08:47:19;20.00;99.90
38414;DHT22;24195;48.654;9.294;2022-09-01T08:49:47;20.10;99.90
38414;DHT22;24195;48.654;9.294;2022-09-01T08:52:31;20.10;99.90
38414;DHT22;24195;48.654;9.294;2022-09-01T08:55:21;20.20;99.90
38414;DHT22;24195;48.654;9.294;2022-09-01T08:57:53;20.10;99.90
38414;DHT22;24195;48.654;9.294;2022-09-01T09:00:22;19.90;99.90
38414;DHT22;24195;48.654;9.294;2022-09-01T09:05:42;19.90;99.90
38414;DHT22;24195;48.654;9.294;2022-09-01T09:16:54;19.80;99.90
38414;DHT22;24195;48.654;9.294;2022-09-01T09:19:41;19.70;99.90
38414;DHT22;24195;48.654;9.294;2022-09-01T09:22:17;20.00;99.90
38414;DHT22;24195;48.654;9.294;2022-09-01T09:25:00;20.40;99.90
38414;DHT22;24195;48.654;9.294;2022-09-01T09:27:39;20.70;99.90
38414;DHT22;24195;48.654;9.294;2022-09-01T09:30:19;20.80;99.90
38414;DHT22;24195;48.654;9.294;2022-09-01T09:37:48;21.00;99.90
38414;DHT22;24195;48.654;9.294;2022-09-01T09:40:16;21.00;99.90
38414;DHT22;24195;48.654;9.294;2022-09-01T09:45:24;20.70;99.90
38414;DHT22;24195;48.654;9.294;2022-09-01T09:47:52;20.90;99.90
38414;DHT22;24195;48.654;9.294;2022-09-01T09:50:30;21.10;99.90
38414;DHT22;24195;48.654;9.294;2022-09-01T09:55:58;21.00;99.90
38414;DHT22;24195;48.654;9.294;2022-09-01T09:58:32;20.80;99.90
38414;DHT22;24195;48.654;9.294;2022-09-01T10:01:03;20.80;99.90
38414;DHT22;24195;48.654;9.294;2022-09-01T10:03:46;20.80;99.90
38414;DHT22;24195;48.654;9.294;2022-09-01T10:06:37;20.50;99.90
38414;DHT22;24195;48.654;9.294;2022-09-01T10:09:08;20.70;99.90
38414;DHT22;24195;48.654;9.294;2022-09-01T10:11:42;20.80;99.90
38414;DHT22;24195;48.654;9.294;2022-09-01T10:14:28;20.90;99.90
38414;DHT22;24195;48.654;9.294;2022-09-01T10:17:01;21.30;99.90
38414;DHT22;24195;48.654;9.294;2022-09-01T10:19:32;21.10;99.90
38414;DHT22;24195;48.654;9.294;2022-09-01T10:21:58;20.90;99.90
38414;DHT22;24195;48.654;9.294;2022-09-01T10:24:35;20.90;99.90
38414;DHT22;24195;48.654;9.294;2022-09-01T10:27:39;20.90;99.90
38414;DHT22;24195;48.654;9.294;2022-09-01T10:32:42;21.60;99.90
38414;DHT22;24195;48.654;9.294;2022-09-01T10:35:31;21.60;99.90
38414;DHT22;24195;48.654;9.294;2022-09-01T10:37:59;21.40;99.90
38414;DHT22;24195;48.654;9.294;2022-09-01T10:42:55;21.20;99.90
38414;DHT22;24195;48.654;9.294;2022-09-01T10:45:36;21.20;99.90
38414;DHT22;24195;48.654;9.294;2022-09-01T10:50:52;21.60;99.90
38414;DHT22;24195;48.654;9.294;2022-09-01T10:54:07;22.10;99.90
38414;DHT22;24195;48.654;9.294;2022-09-01T10:56:39;22.90;99.90
38414;DHT22;24195;48.654;9.294;2022-09-01T11:04:23;22.70;99.90
38414;DHT22;24195;48.654;9.294;2022-09-01T11:13:07;22.30;99.90
38414;DHT22;24195;48.654;9.294;2022-09-01T11:15:39;23.50;99.90
38414;DHT22;24195;48.654;9.294;2022-09-01T11:18:24;24.30;98.40
38414;DHT22;24195;48.654;9.294;2022-09-01T11:20:51;23.90;97.60
38414;DHT22;24195;48.654;9.294;2022-09-01T11:23:29;23.30;99.30
38414;DHT22;24195;48.654;9.294;2022-09-01T11:26:00;23.90;99.90
38414;DHT22;24195;48.654;9.294;2022-09-01T11:36:31;22.50;98.60
38414;DHT22;24195;48.654;9.294;2022-09-01T11:39:07;23.10;98.30
38414;DHT22;24195;48.654;9.294;2022-09-01T11:44:56;23.40;97.80
38414;DHT22;24195;48.654;9.294;2022-09-01T11:47:37;23.10;99.20
38414;DHT22;24195;48.654;9.294;2022-09-01T11:55:39;22.50;99.80
38414;DHT22;24195;48.654;9.294;2022-09-01T11:58:08;22.90;99.80
38414;DHT22;24195;48.654;9.294;2022-09-01T12:00:37;23.20;99.90
38414;DHT22;24195;48.654;9.294;2022-09-01T12:03:29;23.10;99.40
38414;DHT22;24195;48.654;9.294;2022-09-01T12:06:01;22.40;97.90
38414;DHT22;24195;48.654;9.294;2022-09-01T12:08:31;22.40;99.40
38414;DHT22;24195;48.654;9.294;2022-09-01T12:11:10;22.40;99.60
38414;DHT22;24195;48.654;9.294;2022-09-01T12:13:38;23.10;99.00
38414;DHT22;24195;48.654;9.294;2022-09-01T12:16:08;23.60;98.50
38414;DHT22;24195;48.654;9.294;2022-09-01T12:18:35;24.20;95.70
38414;DHT22;24195;48.654;9.294;2022-09-01T12:21:05;23.60;97.70
38414;DHT22;24195;48.654;9.294;2022-09-01T12:23:38;23.40;98.80
38414;DHT22;24195;48.654;9.294;2022-09-01T12:28:56;24.10;96.60
38414;DHT22;24195;48.654;9.294;2022-09-01T12:31:25;24.40;97.00
38414;DHT22;24195;48.654;9.294;2022-09-01T12:37:22;23.70;96.00
38414;DHT22;24195;48.654;9.294;2022-09-01T12:39:54;24.10;96.30
38414;DHT22;24195;48.654;9.294;2022-09-01T12:42:24;24.30;95.80
38414;DHT22;24195;48.654;9.294;2022-09-01T12:52:48;24.50;97.80
38414;DHT22;24195;48.654;9.294;2022-09-01T12:55:24;24.20;96.40
38414;DHT22;24195;48.654;9.294;2022-09-01T12:57:58;23.90;96.80
38414;DHT22;24195;48.654;9.294;2022-09-01T13:03:15;23.70;97.60
38414;DHT22;24195;48.654;9.294;2022-09-01T13:05:53;23.60;98.40
38414;DHT22;24195;48.654;9.294;2022-09-01T13:08:24;23.50;97.60
38414;DHT22;24195;48.654;9.294;2022-09-01T13:10:52;24.00;99.40
38414;DHT22;24195;48.654;9.294;2022-09-01T13:13:20;25.40;96.60
38414;DHT22;24195;48.654;9.294;2022-09-01T13:15:48;26.10;95.20
38414;DHT22;24195;48.654;9.294;2022-09-01T13:18:19;26.10;93.70
38414;DHT22;24195;48.654;9.294;2022-09-01T13:20:46;25.90;94.80
38414;DHT22;24195;48.654;9.294;2022-09-01T13:23:12;25.90;91.40
38414;DHT22;24195;48.654;9.294;2022-09-01T13:25:38;25.50;92.50
38414;DHT22;24195;48.654;9.294;2022-09-01T13:28:05;26.10;93.50
38414;DHT22;24195;48.654;9.294;2022-09-01T13:30:33;26.00;92.20
38414;DHT22;24195;48.654;9.294;2022-09-01T13:32:59;25.50;93.00
38414;DHT22;24195;48.654;9.294;2022-09-01T13:35:24;24.80;93.60
38414;DHT22;24195;48.654;9.294;2022-09-01T13:37:50;24.40;94.20
38414;DHT22;24195;48.654;9.294;2022-09-01T13:40:18;24.10;95.90
38414;DHT22;24195;48.654;9.294;2022-09-01T13:42:53;24.10;97.00
38414;DHT22;24195;48.654;9.294;2022-09-01T13:45:21;23.80;96.60
38414;DHT22;24195;48.654;9.294;2022-09-01T13:47:49;23.70;97.30
38414;DHT22;24195;48.654;9.294;2022-09-01T13:50:17;23.60;98.00
38414;DHT22;24195;48.654;9.294;2022-09-01T13:52:46;23.40;97.40
38414;DHT22;24195;48.654;9.294;2022-09-01T13:55:15;23.50;98.50
38414;DHT22;24195;48.654;9.294;2022-09-01T13:57:41;23.70;97.70
38414;DHT22;24195;48.654;9.294;2022-09-01T14:00:09;24.00;96.70
38414;DHT22;24195;48.654;9.294;2022-09-01T14:02:37;23.90;96.30
38414;DHT22;24195;48.654;9.294;2022-09-01T14:05:03;23.60;97.50
38414;DHT22;24195;48.654;9.294;2022-09-01T14:07:29;23.70;97.30
38414;DHT22;24195;48.654;9.294;2022-09-01T14:09:57;23.80;97.80
38414;DHT22;24195;48.654;9.294;2022-09-01T14:12:23;23.80;96.80
38414;DHT22;24195;48.654;9.294;2022-09-01T14:14:49;25.30;95.80
38414;DHT22;24195;48.654;9.294;2022-09-01T14:17:14;27.00;91.70
38414;DHT22;24195;48.654;9.294;2022-09-01T14:19:40;27.70;91.40
38414;DHT22;24195;48.654;9.294;2022-09-01T14:22:07;29.10;87.70
38414;DHT22;24195;48.654;9.294;2022-09-01T14:24:35;29.40;85.30
38414;DHT22;24195;48.654;9.294;2022-09-01T14:27:02;30.70;78.60
38414;DHT22;24195;48.654;9.294;2022-09-01T14:29:28;29.30;80.30
38414;DHT22;24195;48.654;9.294;2022-09-01T14:31:54;29.40;78.30
38414;DHT22;24195;48.654;9.294;2022-09-01T14:34:22;28.90;77.30
38414;DHT22;24195;48.654;9.294;2022-09-01T14:36:49;28.40;78.50
38414;DHT22;24195;48.654;9.294;2022-09-01T14:39:18;27.40;79.20
38414;DHT22;24195;48.654;9.294;2022-09-01T14:41:44;25.80;84.90
38414;DHT22;24195;48.654;9.294;2022-09-01T14:44:09;25.30;89.40
38414;DHT22;24195;48.654;9.294;2022-09-01T14:46:35;25.30;88.20
38414;DHT22;24195;48.654;9.294;2022-09-01T14:49:09;25.60;86.50
38414;DHT22;24195;48.654;9.294;2022-09-01T14:51:36;25.60;90.80
38414;DHT22;24195;48.654;9.294;2022-09-01T14:54:03;25.30;88.90
38414;DHT22;24195;48.654;9.294;2022-09-01T14:56:29;25.20;85.50
38414;DHT22;24195;48.654;9.294;2022-09-01T14:58:54;25.00;85.70
38414;DHT22;24195;48.654;9.294;2022-09-01T15:01:26;25.20;89.10
38414;DHT22;24195;48.654;9.294;2022-09-01T15:03:52;25.30;86.60
38414;DHT22;24195;48.654;9.294;2022-09-01T15:06:20;25.40;89.70
38414;DHT22;24195;48.654;9.294;2022-09-01T15:08:51;25.80;90.20
38414;DHT22;24195;48.654;9.294;2022-09-01T15:11:18;26.10;86.50
38414;DHT22;24195;48.654;9.294;2022-09-01T15:13:50;26.40;83.30
38414;DHT22;24195;48.654;9.294;2022-09-01T15:16:24;26.10;88.20
38414;DHT22;24195;48.654;9.294;2022-09-01T15:19:02;26.20;87.70
38414;DHT22;24195;48.654;9.294;2022-09-01T15:21:41;26.40;85.70
38414;DHT22;24195;48.654;9.294;2022-09-01T15:24:33;26.10;88.50
38414;DHT22;24195;48.654;9.294;2022-09-01T15:27:01;25.80;85.20
38414;DHT22;24195;48.654;9.294;2022-09-01T15:29:36;25.60;89.40
38414;DHT22;24195;48.654;9.294;2022-09-01T15:32:12;25.40;84.90
38414;DHT22;24195;48.654;9.294;2022-09-01T15:34:38;25.00;90.10
38414;DHT22;24195;48.654;9.294;2022-09-01T15:37:04;25.10;92.30
38414;DHT22;24195;48.654;9.294;2022-09-01T15:39:32;25.30;90.10
38414;DHT22;24195;48.654;9.294;2022-09-01T15:42:00;25.20;88.80
38414;DHT22;24195;48.654;9.294;2022-09-01T15:44:27;25.30;90.20
38414;DHT22;24195;48.654;9.294;2022-09-01T15:46:56;25.00;88.70
38414;DHT22;24195;48.654;9.294;2022-09-01T15:49:24;25.20;87.00
38414;DHT22;24195;48.654;9.294;2022-09-01T15:52:12;25.40;90.60
38414;DHT22;24195;48.654;9.294;2022-09-01T15:55:01;25.40;91.00
38414;DHT22;24195;48.654;9.294;2022-09-01T15:57:37;25.20;88.40
38414;DHT22;24195;48.654;9.294;2022-09-01T16:00:26;26.30;86.00
38414;DHT22;24195;48.654;9.294;2022-09-01T16:02:52;27.30;87.60
38414;DHT22;24195;48.654;9.294;2022-09-01T16:05:26;26.90;83.10
38414;DHT22;24195;48.654;9.294;2022-09-01T16:07:52;26.40;85.80
38414;DHT22;24195;48.654;9.294;2022-09-01T16:10:19;25.60;86.30
38414;DHT22;24195;48.654;9.294;2022-09-01T16:12:44;25.60;88.30
38414;DHT22;24195;48.654;9.294;2022-09-01T16:15:26;25.90;84.00
38414;DHT22;24195;48.654;9.294;2022-09-01T16:20:26;26.30;84.30
38414;DHT22;24195;48.654;9.294;2022-09-01T16:23:07;26.40;84.10
38414;DHT22;24195;48.654;9.294;2022-09-01T16:25:34;27.50;82.90
38414;DHT22;24195;48.654;9.294;2022-09-01T16:28:45;29.30;77.10
38414;DHT22;24195;48.654;9.294;2022-09-01T16:30:52;30.70;73.50
38414;DHT22;24195;48.654;9.294;2022-09-01T16:33:18;31.70;69.20
38414;DHT22;24195;48.654;9.294;2022-09-01T16:38:47;31.10;68.10
38414;DHT22;24195;48.654;9.294;2022-09-01T16:46:59;28.60;73.50
38414;DHT22;24195;48.654;9.294;2022-09-01T16:49:51;28.10;76.20
38414;DHT22;24195;48.654;9.294;2022-09-01T16:55:17;27.70;75.80
38414;DHT22;24195;48.654;9.294;2022-09-01T17:04:14;22.70;91.60
38414;DHT22;24195;48.654;9.294;2022-09-01T17:06:54;22.20;93.20
38414;DHT22;24195;48.654;9.294;2022-09-01T17:12:35;21.60;94.40
38414;DHT22;24195;48.654;9.294;2022-09-01T17:15:11;21.50;95.00
38414;DHT22;24195;48.654;9.294;2022-09-01T17:20:47;21.20;95.30
38414;DHT22;24195;48.654;9.294;2022-09-01T17:23:19;21.00;96.50
38414;DHT22;24195;48.654;9.294;2022-09-01T17:25:51;21.00;96.30
38414;DHT22;24195;48.654;9.294;2022-09-01T17:28:35;20.80;96.70
38414;DHT22;24195;48.654;9.294;2022-09-01T17:34:00;20.60;97.00
38414;DHT22;24195;48.654;9.294;2022-09-01T17:36:37;20.40;97.20
38414;DHT22;24195;48.654;9.294;2022-09-01T17:41:52;20.20;97.60
38414;DHT22;24195;48.654;9.294;2022-09-01T17:52:19;20.00;98.20
38414;DHT22;24195;48.654;9.294;2022-09-01T17:55:28;19.90;98.40
38414;DHT22;24195;48.654;9.294;2022-09-01T17:58:06;19.80;99.00
38414;DHT22;24195;48.654;9.294;2022-09-01T18:00:57;19.70;99.40